createdAt,value
2017-11-24T00:00:09.886Z,9.06
2017-11-24T00:01:10.591Z,9.10
2017-11-24T00:02:11.299Z,9.03
2017-11-24T00:03:12.014Z,9.10
2017-11-24T00:04:12.718Z,9.06
2017-11-24T00:05:13.425Z,9.10
2017-11-24T00:06:14.129Z,9.08
2017-11-24T00:07:14.836Z,9.13
2017-11-24T00:08:15.561Z,9.14
2017-11-24T00:09:16.261Z,9.16
2017-11-24T00:10:16.967Z,9.11
2017-11-24T00:11:17.672Z,9.13
2017-11-24T00:12:18.379Z,9.13
2017-11-24T00:13:19.087Z,9.23
2017-11-24T00:14:19.792Z,9.32
2017-11-24T00:15:20.509Z,9.32
2017-11-24T00:16:21.214Z,9.25
2017-11-24T00:17:21.920Z,9.31
2017-11-24T00:18:22.624Z,9.32
2017-11-24T00:19:23.343Z,9.34
2017-11-24T00:20:24.050Z,9.39
2017-11-24T00:21:24.753Z,9.34
2017-11-24T00:22:25.460Z,9.34
2017-11-24T00:23:26.166Z,9.39
2017-11-24T00:24:26.872Z,9.36
2017-11-24T00:25:27.578Z,9.31
2017-11-24T00:26:28.283Z,9.31
2017-11-24T00:27:29.003Z,9.26
2017-11-24T00:28:29.706Z,9.29
2017-11-24T00:29:30.413Z,9.26
2017-11-24T00:30:31.119Z,9.21
2017-11-24T00:31:31.826Z,9.28
2017-11-24T00:32:32.532Z,9.25
2017-11-24T00:33:33.237Z,9.26
2017-11-24T00:34:33.940Z,9.34
2017-11-24T00:35:34.646Z,9.26
2017-11-24T00:36:35.366Z,9.25
2017-11-24T00:37:36.087Z,9.28
2017-11-24T00:38:36.801Z,9.37
2017-11-24T00:39:37.508Z,9.32
2017-11-24T00:40:38.214Z,9.31
2017-11-24T00:41:38.919Z,9.25
2017-11-24T00:42:39.634Z,9.34
2017-11-24T00:43:40.342Z,9.32
2017-11-24T00:44:41.048Z,9.31
2017-11-24T00:45:41.753Z,9.37
2017-11-24T00:46:42.472Z,9.29
2017-11-24T00:47:43.192Z,9.32
2017-11-24T00:48:43.897Z,9.32
2017-11-24T00:49:44.617Z,9.26
2017-11-24T00:50:45.330Z,9.26
2017-11-24T00:51:46.038Z,9.39
2017-11-24T00:52:46.744Z,9.22
2017-11-24T00:53:47.447Z,9.31
2017-11-24T00:54:48.171Z,9.28
2017-11-24T00:55:48.872Z,9.32
2017-11-24T00:56:49.579Z,9.37
2017-11-24T00:57:50.286Z,9.26
2017-11-24T00:58:50.991Z,9.25
2017-11-24T00:59:51.712Z,9.31
2017-11-24T01:00:52.429Z,9.26
2017-11-24T01:01:53.135Z,9.34
2017-11-24T01:02:53.839Z,9.29
2017-11-24T01:03:54.557Z,9.29
2017-11-24T01:04:55.263Z,9.34
2017-11-24T01:05:55.978Z,9.29
2017-11-24T01:06:56.685Z,9.34
2017-11-24T01:07:57.394Z,9.40
2017-11-24T01:08:58.101Z,9.28
2017-11-24T01:09:58.806Z,9.46
2017-11-24T01:10:59.512Z,9.29
2017-11-24T01:12:00.219Z,9.39
2017-11-24T01:13:00.928Z,9.32
2017-11-24T01:14:01.635Z,9.32
2017-11-24T01:15:02.342Z,9.34
2017-11-24T01:16:03.058Z,9.47
2017-11-24T01:17:03.764Z,9.40
2017-11-24T01:18:04.471Z,9.40
2017-11-24T01:19:05.192Z,9.44
2017-11-24T01:20:05.899Z,9.39
2017-11-24T01:21:06.606Z,9.54
2017-11-24T01:22:07.319Z,9.43
2017-11-24T01:23:08.019Z,9.48
2017-11-24T01:24:08.727Z,9.48
2017-11-24T01:25:09.432Z,9.54
2017-11-24T01:26:10.142Z,9.51
2017-11-24T01:27:10.849Z,9.51
2017-11-24T01:28:11.556Z,9.50
2017-11-24T01:29:12.262Z,9.59
2017-11-24T01:30:12.975Z,9.54
2017-11-24T01:31:13.701Z,9.54
2017-11-24T01:32:14.411Z,9.50
2017-11-24T01:33:15.123Z,9.55
2017-11-24T01:34:15.843Z,9.59
2017-11-24T01:35:16.549Z,9.62
2017-11-24T01:36:17.256Z,9.54
2017-11-24T01:37:17.967Z,9.61
2017-11-24T01:38:18.669Z,9.59
2017-11-24T01:39:19.377Z,9.61
2017-11-24T01:40:20.084Z,9.54
2017-11-24T01:41:20.793Z,9.64
2017-11-24T01:42:21.500Z,9.61
2017-11-24T01:43:22.219Z,9.62
2017-11-24T01:44:22.927Z,9.61
2017-11-24T01:45:23.641Z,9.61
2017-11-24T01:46:24.348Z,9.65
2017-11-24T01:47:25.055Z,9.65
2017-11-24T01:48:25.761Z,9.62
2017-11-24T01:49:26.481Z,9.66
2017-11-24T01:50:27.185Z,9.61
2017-11-24T01:51:27.894Z,9.65
2017-11-24T01:52:28.598Z,9.66
2017-11-24T01:53:29.305Z,9.66
2017-11-24T01:54:30.027Z,9.66
2017-11-24T01:55:30.745Z,9.68
2017-11-24T01:56:31.452Z,9.68
2017-11-24T01:57:32.162Z,9.72
2017-11-24T01:58:32.875Z,9.65
2017-11-24T01:59:33.580Z,9.68
2017-11-24T02:00:34.286Z,9.74
2017-11-24T02:01:34.992Z,9.73
2017-11-24T02:02:35.699Z,9.74
2017-11-24T02:03:36.403Z,9.69
2017-11-24T02:04:37.112Z,9.79
2017-11-24T02:05:37.828Z,9.74
2017-11-24T02:06:38.535Z,9.76
2017-11-24T02:07:39.253Z,9.79
2017-11-24T02:08:39.962Z,9.80
2017-11-24T02:09:40.665Z,9.79
2017-11-24T02:10:41.371Z,9.74
2017-11-24T02:11:42.077Z,9.74
2017-11-24T02:12:42.782Z,9.76
2017-11-24T02:13:43.505Z,9.74
2017-11-24T02:14:44.211Z,9.86
2017-11-24T02:15:44.919Z,9.79
2017-11-24T02:16:45.638Z,9.91
2017-11-24T02:17:46.504Z,9.83
2017-11-24T02:18:47.223Z,9.79
2017-11-24T02:19:47.930Z,9.98
2017-11-24T02:20:48.634Z,9.83
2017-11-24T02:21:49.351Z,9.84
2017-11-24T02:22:50.058Z,9.87
2017-11-24T02:23:50.761Z,9.82
2017-11-24T02:24:51.477Z,9.80
2017-11-24T02:25:52.182Z,9.84
2017-11-24T02:26:52.914Z,9.83
2017-11-24T02:27:53.623Z,9.86
2017-11-24T02:28:54.332Z,9.89
2017-11-24T02:29:55.050Z,9.92
2017-11-24T02:30:55.756Z,9.92
2017-11-24T02:31:56.461Z,9.89
2017-11-24T02:32:57.169Z,9.86
2017-11-24T02:33:57.875Z,9.91
2017-11-24T02:34:58.597Z,9.91
2017-11-24T02:35:59.301Z,9.97
2017-11-24T02:37:00.009Z,9.98
2017-11-24T02:38:00.735Z,10.02
2017-11-24T02:39:01.431Z,9.99
2017-11-24T02:40:02.137Z,10.01
2017-11-24T02:41:02.847Z,10.01
2017-11-24T02:42:03.551Z,9.99
2017-11-24T02:43:04.261Z,10.05
2017-11-24T02:44:04.970Z,9.95
2017-11-24T02:45:05.685Z,9.98
2017-11-24T02:46:06.382Z,10.01
2017-11-24T02:47:07.087Z,9.99
2017-11-24T02:48:07.808Z,9.99
2017-11-24T02:49:08.513Z,10.04
2017-11-24T02:50:09.219Z,9.99
2017-11-24T02:51:09.928Z,10.07
2017-11-24T02:52:10.636Z,9.97
2017-11-24T02:53:11.345Z,9.98
2017-11-24T02:54:12.053Z,9.98
2017-11-24T02:55:12.763Z,9.98
2017-11-24T02:56:13.470Z,10.07
2017-11-24T02:57:14.193Z,10.02
2017-11-24T02:58:14.917Z,10.01
2017-11-24T02:59:15.620Z,10.01
2017-11-24T03:00:16.328Z,10.04
2017-11-24T03:01:17.034Z,9.99
2017-11-24T03:02:17.754Z,9.99
2017-11-24T03:03:18.463Z,10.02
2017-11-24T03:04:19.184Z,10.02
2017-11-24T03:05:19.890Z,10.07
2017-11-24T03:06:20.611Z,10.02
2017-11-24T03:07:21.319Z,10.01
2017-11-24T03:08:22.037Z,10.10
2017-11-24T03:09:22.745Z,10.02
2017-11-24T03:10:23.451Z,10.02
2017-11-24T03:11:24.157Z,10.04
2017-11-24T03:12:24.878Z,9.98
2017-11-24T03:13:25.585Z,9.99
2017-11-24T03:14:26.294Z,10.02
2017-11-24T03:15:27.000Z,10.01
2017-11-24T03:16:27.708Z,10.05
2017-11-24T03:17:28.416Z,10.01
2017-11-24T03:18:29.124Z,10.01
2017-11-24T03:19:29.832Z,9.98
2017-11-24T03:20:30.538Z,9.86
2017-11-24T03:21:31.246Z,9.79
2017-11-24T03:22:31.953Z,9.91
2017-11-24T03:23:32.658Z,9.84
2017-11-24T03:24:33.366Z,9.80
2017-11-24T03:25:34.073Z,9.66
2017-11-24T03:26:34.780Z,9.65
2017-11-24T03:27:35.487Z,9.68
2017-11-24T03:28:36.195Z,9.73
2017-11-24T03:29:36.899Z,9.68
2017-11-24T03:30:37.607Z,9.64
2017-11-24T03:31:38.314Z,9.58
2017-11-24T03:32:39.030Z,9.56
2017-11-24T03:33:39.747Z,9.48
2017-11-24T03:34:40.455Z,9.48
2017-11-24T03:35:41.173Z,9.56
2017-11-24T03:36:41.884Z,9.55
2017-11-24T03:37:42.585Z,9.44
2017-11-24T03:38:43.302Z,9.54
2017-11-24T03:39:44.020Z,9.54
2017-11-24T03:40:44.725Z,9.48
2017-11-24T03:41:45.430Z,9.43
2017-11-24T03:42:46.149Z,9.41
2017-11-24T03:43:46.866Z,9.54
2017-11-24T03:44:47.577Z,9.44
2017-11-24T03:45:48.279Z,9.44
2017-11-24T03:46:48.986Z,9.44
2017-11-24T03:47:49.703Z,9.39
2017-11-24T03:48:50.423Z,9.41
2017-11-24T03:49:51.128Z,9.46
2017-11-24T03:50:51.832Z,9.41
2017-11-24T03:51:52.548Z,9.48
2017-11-24T03:52:53.254Z,9.34
2017-11-24T03:53:53.958Z,9.41
2017-11-24T03:54:54.665Z,9.36
2017-11-24T03:55:55.383Z,9.32
2017-11-24T03:56:56.089Z,9.39
2017-11-24T03:57:56.795Z,9.31
2017-11-24T03:58:57.504Z,9.36
2017-11-24T03:59:58.209Z,9.32
2017-11-24T04:00:58.915Z,9.40
2017-11-24T04:01:59.634Z,9.32
2017-11-24T04:03:00.337Z,9.32
2017-11-24T04:04:01.041Z,9.37
2017-11-24T04:05:01.748Z,9.36
2017-11-24T04:06:02.452Z,9.31
2017-11-24T04:07:03.159Z,9.36
2017-11-24T04:08:03.877Z,9.37
2017-11-24T04:09:04.583Z,9.39
2017-11-24T04:10:05.294Z,9.34
2017-11-24T04:11:06.002Z,9.36
2017-11-24T04:12:06.708Z,9.34
2017-11-24T04:13:07.421Z,9.34
2017-11-24T04:14:08.124Z,9.25
2017-11-24T04:15:08.831Z,9.34
2017-11-24T04:16:09.538Z,9.32
2017-11-24T04:17:10.245Z,9.34
2017-11-24T04:18:10.964Z,9.31
2017-11-24T04:19:11.673Z,9.25
2017-11-24T04:20:12.375Z,9.28
2017-11-24T04:21:13.079Z,9.26
2017-11-24T04:22:13.785Z,9.28
2017-11-24T04:23:14.491Z,9.37
2017-11-24T04:24:15.198Z,9.34
2017-11-24T04:25:15.905Z,9.29
2017-11-24T04:26:16.623Z,9.19
2017-11-24T04:27:17.329Z,9.25
2017-11-24T04:28:18.034Z,9.21
2017-11-24T04:29:18.738Z,9.26
2017-11-24T04:30:19.456Z,9.16
2017-11-24T04:31:20.163Z,9.19
2017-11-24T04:32:20.867Z,9.13
2017-11-24T04:33:21.574Z,9.16
2017-11-24T04:34:22.291Z,9.13
2017-11-24T04:35:22.997Z,9.11
2017-11-24T04:36:23.702Z,9.10
2017-11-24T04:37:24.411Z,9.04
2017-11-24T04:38:25.117Z,9.08
2017-11-24T04:39:25.822Z,9.08
2017-11-24T04:40:26.528Z,9.08
2017-11-24T04:41:27.233Z,9.04
2017-11-24T04:42:27.940Z,9.04
2017-11-24T04:43:28.646Z,9.06
2017-11-24T04:44:29.363Z,9.03
2017-11-24T04:45:30.080Z,8.99
2017-11-24T04:46:30.797Z,8.99
2017-11-24T04:47:31.510Z,9.06
2017-11-24T04:48:32.205Z,9.00
2017-11-24T04:49:32.914Z,8.97
2017-11-24T04:50:33.621Z,8.97
2017-11-24T04:51:34.323Z,9.02
2017-11-24T04:52:35.029Z,8.95
2017-11-24T04:53:35.737Z,8.95
2017-11-24T04:54:36.443Z,8.92
2017-11-24T04:55:37.150Z,8.87
2017-11-24T04:56:37.854Z,8.94
2017-11-24T04:57:38.571Z,8.81
2017-11-24T04:58:39.276Z,8.89
2017-11-24T04:59:39.981Z,8.88
2017-11-24T05:00:40.684Z,8.92
2017-11-24T05:01:41.408Z,8.92
2017-11-24T05:02:42.107Z,8.84
2017-11-24T05:03:42.825Z,8.79
2017-11-24T05:04:43.530Z,8.85
2017-11-24T05:05:44.236Z,8.85
2017-11-24T05:06:44.941Z,8.76
2017-11-24T05:07:45.647Z,8.81
2017-11-24T05:08:46.355Z,8.82
2017-11-24T05:09:47.078Z,8.84
2017-11-24T05:10:47.788Z,8.78
2017-11-24T05:11:48.495Z,8.82
2017-11-24T05:12:49.200Z,8.87
2017-11-24T05:13:49.908Z,8.85
2017-11-24T05:14:50.623Z,8.84
2017-11-24T05:15:51.330Z,8.82
2017-11-24T05:16:52.043Z,8.92
2017-11-24T05:17:52.745Z,8.89
2017-11-24T05:18:53.453Z,8.79
2017-11-24T05:19:54.157Z,8.81
2017-11-24T05:20:54.875Z,8.85
2017-11-24T05:21:55.579Z,8.88
2017-11-24T05:22:56.285Z,8.89
2017-11-24T05:23:57.002Z,8.82
2017-11-24T05:24:57.705Z,8.91
2017-11-24T05:25:58.410Z,8.88
2017-11-24T05:26:59.114Z,8.89
2017-11-24T05:27:59.829Z,8.95
2017-11-24T05:29:00.534Z,8.99
2017-11-24T05:30:01.237Z,8.92
2017-11-24T05:31:01.945Z,8.94
2017-11-24T05:32:02.652Z,9.00
2017-11-24T05:33:03.368Z,8.97
2017-11-24T05:34:04.074Z,9.00
2017-11-24T05:35:04.778Z,9.00
2017-11-24T05:36:05.483Z,9.02
2017-11-24T05:37:06.188Z,9.03
2017-11-24T05:38:06.900Z,9.04
2017-11-24T05:39:07.599Z,9.08
2017-11-24T05:40:08.303Z,9.00
2017-11-24T05:41:09.022Z,9.10
2017-11-24T05:42:09.725Z,9.06
2017-11-24T05:43:10.441Z,9.00
2017-11-24T05:44:11.160Z,9.03
2017-11-24T05:45:11.866Z,9.04
2017-11-24T05:46:12.572Z,9.10
2017-11-24T05:47:13.278Z,9.10
2017-11-24T05:48:13.982Z,9.06
2017-11-24T05:49:14.701Z,9.10
2017-11-24T05:50:15.407Z,9.08
2017-11-24T05:51:16.126Z,9.06
2017-11-24T05:52:16.852Z,9.10
2017-11-24T05:53:17.555Z,9.10
2017-11-24T05:54:18.256Z,9.06
2017-11-24T05:55:18.963Z,9.08
2017-11-24T05:56:19.689Z,9.13
2017-11-24T05:57:20.390Z,9.08
2017-11-24T05:58:21.098Z,9.11
2017-11-24T05:59:21.806Z,8.97
2017-11-24T06:00:22.513Z,9.03
2017-11-24T06:01:23.230Z,9.04
2017-11-24T06:02:23.947Z,9.04
2017-11-24T06:03:24.656Z,9.02
2017-11-24T06:04:25.357Z,9.03
2017-11-24T06:05:26.079Z,9.00
2017-11-24T06:06:26.779Z,9.02
2017-11-24T06:07:27.498Z,9.02
2017-11-24T06:08:28.217Z,9.00
2017-11-24T06:09:28.925Z,9.03
2017-11-24T06:10:29.644Z,9.02
2017-11-24T06:11:30.350Z,8.95
2017-11-24T06:12:31.055Z,8.97
2017-11-24T06:13:31.762Z,8.97
2017-11-24T06:14:32.480Z,8.91
2017-11-24T06:15:33.200Z,8.89
2017-11-24T06:16:33.908Z,8.87
2017-11-24T06:17:34.614Z,8.87
2017-11-24T06:18:35.321Z,8.85
2017-11-24T06:19:36.024Z,8.85
2017-11-24T06:20:36.731Z,8.85
2017-11-24T06:21:37.450Z,8.87
2017-11-24T06:22:38.158Z,8.82
2017-11-24T06:23:38.867Z,8.85
2017-11-24T06:24:39.575Z,8.85
2017-11-24T06:25:40.284Z,8.81
2017-11-24T06:26:40.990Z,8.84
2017-11-24T06:27:41.707Z,8.84
2017-11-24T06:28:42.413Z,8.85
2017-11-24T06:29:43.119Z,8.76
2017-11-24T06:30:43.826Z,8.67
2017-11-24T06:31:44.542Z,8.78
2017-11-24T06:32:45.250Z,8.71
2017-11-24T06:33:45.956Z,8.74
2017-11-24T06:34:46.673Z,8.61
2017-11-24T06:35:47.381Z,8.78
2017-11-24T06:36:48.087Z,8.64
2017-11-24T06:37:48.799Z,8.64
2017-11-24T06:38:49.512Z,8.76
2017-11-24T06:39:50.222Z,8.67
2017-11-24T06:40:50.928Z,8.66
2017-11-24T06:41:51.635Z,8.63
2017-11-24T06:42:52.354Z,8.61
2017-11-24T06:43:53.074Z,8.61
2017-11-24T06:44:53.776Z,8.66
2017-11-24T06:45:54.500Z,8.69
2017-11-24T06:46:55.214Z,8.76
2017-11-24T06:47:55.922Z,8.69
2017-11-24T06:48:56.630Z,8.69
2017-11-24T06:49:57.355Z,8.71
2017-11-24T06:50:58.073Z,8.69
2017-11-24T06:51:58.776Z,8.66
2017-11-24T06:52:59.496Z,8.55
2017-11-24T06:54:00.220Z,8.71
2017-11-24T06:55:00.918Z,8.52
2017-11-24T06:56:01.623Z,8.51
2017-11-24T06:57:02.329Z,8.60
2017-11-24T06:58:03.037Z,8.60
2017-11-24T06:59:03.743Z,8.53
2017-11-24T07:00:04.450Z,8.55
2017-11-24T07:01:05.157Z,8.58
2017-11-24T07:02:05.876Z,8.56
2017-11-24T07:03:06.583Z,8.55
2017-11-24T07:04:07.302Z,8.56
2017-11-24T07:05:08.009Z,8.55
2017-11-24T07:06:08.717Z,8.60
2017-11-24T07:07:09.423Z,8.48
2017-11-24T07:08:10.146Z,8.48
2017-11-24T07:09:10.852Z,8.49
2017-11-24T07:10:11.562Z,8.49
2017-11-24T07:11:12.271Z,8.42
2017-11-24T07:12:12.980Z,8.49
2017-11-24T07:13:13.688Z,8.44
2017-11-24T07:14:14.407Z,8.48
2017-11-24T07:15:15.118Z,8.51
2017-11-24T07:16:15.826Z,8.49
2017-11-24T07:17:16.544Z,8.58
2017-11-24T07:18:17.243Z,8.52
2017-11-24T07:19:17.951Z,8.52
2017-11-24T07:20:18.659Z,8.52
2017-11-24T07:21:19.364Z,8.49
2017-11-24T07:22:20.075Z,8.60
2017-11-24T07:23:20.782Z,8.56
2017-11-24T07:24:21.492Z,8.53
2017-11-24T07:25:22.200Z,8.52
2017-11-24T07:26:22.909Z,8.46
2017-11-24T07:27:23.620Z,8.51
2017-11-24T07:28:24.330Z,8.46
2017-11-24T07:29:25.050Z,8.56
2017-11-24T07:30:25.760Z,8.58
2017-11-24T07:31:26.470Z,8.58
2017-11-24T07:32:27.181Z,8.58
2017-11-24T07:33:27.890Z,8.53
2017-11-24T07:34:28.599Z,8.52
2017-11-24T07:35:29.311Z,8.46
2017-11-24T07:36:30.019Z,8.48
2017-11-24T07:37:30.741Z,8.33
2017-11-24T07:38:31.453Z,8.38
2017-11-24T07:39:32.163Z,8.41
2017-11-24T07:40:32.873Z,8.31
2017-11-24T07:41:33.592Z,8.34
2017-11-24T07:42:34.299Z,8.41
2017-11-24T07:43:35.010Z,8.36
2017-11-24T07:44:35.721Z,8.33
2017-11-24T07:45:36.429Z,8.44
2017-11-24T07:46:37.147Z,8.36
2017-11-24T07:47:37.862Z,8.45
2017-11-24T07:48:38.577Z,8.33
2017-11-24T07:49:39.291Z,8.45
2017-11-24T07:50:39.997Z,8.31
2017-11-24T07:51:40.720Z,8.33
2017-11-24T07:52:41.432Z,8.36
2017-11-24T07:53:42.140Z,8.42
2017-11-24T07:54:42.850Z,8.49
2017-11-24T07:55:43.558Z,8.45
2017-11-24T07:56:44.267Z,8.44
2017-11-24T07:57:44.988Z,8.49
2017-11-24T07:58:45.698Z,8.55
2017-11-24T07:59:46.404Z,8.55
2017-11-24T08:00:47.112Z,8.63
2017-11-24T08:01:47.825Z,8.48
2017-11-24T08:02:48.533Z,8.53
2017-11-24T08:03:49.243Z,8.56
2017-11-24T08:04:49.966Z,8.58
2017-11-24T08:05:50.676Z,8.56
2017-11-24T08:06:51.384Z,8.58
2017-11-24T08:07:52.097Z,8.66
2017-11-24T08:08:52.817Z,8.58
2017-11-24T08:09:53.527Z,8.63
2017-11-24T08:10:54.242Z,8.61
2017-11-24T08:11:54.947Z,8.66
2017-11-24T08:12:55.659Z,8.60
2017-11-24T08:13:56.386Z,8.69
2017-11-24T08:14:57.103Z,8.64
2017-11-24T08:15:57.817Z,8.64
2017-11-24T08:16:58.524Z,8.66
2017-11-24T08:17:59.234Z,8.64
2017-11-24T08:18:59.956Z,8.63
2017-11-24T08:20:00.671Z,8.64
2017-11-24T08:21:01.381Z,8.61
2017-11-24T08:22:02.092Z,8.60
2017-11-24T08:23:02.804Z,8.63
2017-11-24T08:24:03.515Z,8.66
2017-11-24T08:25:04.228Z,8.66
2017-11-24T08:26:04.939Z,8.61
2017-11-24T08:27:05.651Z,8.66
2017-11-24T08:28:06.371Z,8.69
2017-11-24T08:29:07.082Z,8.76
2017-11-24T08:30:07.793Z,8.66
2017-11-24T08:31:08.502Z,8.64
2017-11-24T08:32:09.211Z,8.71
2017-11-24T08:33:09.920Z,8.69
2017-11-24T08:34:10.632Z,8.66
2017-11-24T08:35:11.344Z,8.67
2017-11-24T08:36:12.062Z,8.58
2017-11-24T08:37:12.779Z,8.69
2017-11-24T08:38:13.500Z,8.67
2017-11-24T08:39:14.211Z,8.67
2017-11-24T08:40:14.925Z,8.64
2017-11-24T08:41:15.646Z,8.69
2017-11-24T08:42:16.358Z,8.70
2017-11-24T08:43:17.069Z,8.66
2017-11-24T08:44:17.793Z,8.64
2017-11-24T08:45:18.503Z,8.71
2017-11-24T08:46:19.290Z,8.69
2017-11-24T08:47:19.991Z,8.76
2017-11-24T08:48:20.701Z,8.70
2017-11-24T08:49:21.413Z,8.74
2017-11-24T08:50:22.135Z,8.67
2017-11-24T08:51:22.859Z,8.67
2017-11-24T08:52:23.569Z,8.73
2017-11-24T08:53:24.279Z,8.64
2017-11-24T08:54:24.991Z,8.84
2017-11-24T08:55:25.702Z,8.82
2017-11-24T08:56:26.415Z,8.89
2017-11-24T08:57:27.127Z,8.95
2017-11-24T08:58:27.853Z,9.00
2017-11-24T08:59:28.568Z,8.95
2017-11-24T09:00:29.279Z,9.04
2017-11-24T09:01:29.993Z,9.14
2017-11-24T09:02:30.706Z,9.19
2017-11-24T09:03:31.419Z,9.32
2017-11-24T09:04:32.131Z,9.41
2017-11-24T09:05:32.841Z,9.44
2017-11-24T09:06:33.554Z,9.46
2017-11-24T09:07:34.268Z,9.44
2017-11-24T09:08:34.986Z,9.55
2017-11-24T09:09:35.696Z,9.56
2017-11-24T09:10:36.415Z,9.40
2017-11-24T09:11:37.125Z,9.73
2017-11-24T09:12:37.837Z,9.68
2017-11-24T09:13:38.549Z,9.68
2017-11-24T09:14:39.273Z,9.72
2017-11-24T09:15:39.983Z,9.62
2017-11-24T09:16:40.695Z,9.72
2017-11-24T09:17:41.410Z,9.69
2017-11-24T09:18:42.134Z,9.62
2017-11-24T09:19:42.845Z,9.55
2017-11-24T09:20:43.563Z,9.55
2017-11-24T09:21:44.282Z,9.59
2017-11-24T09:22:44.995Z,9.54
2017-11-24T09:23:45.709Z,9.56
2017-11-24T09:24:46.420Z,9.41
2017-11-24T09:25:47.129Z,9.41
2017-11-24T09:26:47.840Z,9.41
2017-11-24T09:27:48.552Z,9.40
2017-11-24T09:28:49.264Z,9.48
2017-11-24T09:29:49.989Z,9.39
2017-11-24T09:30:50.704Z,9.48
2017-11-24T09:31:51.414Z,9.29
2017-11-24T09:32:52.129Z,9.47
2017-11-24T09:33:52.836Z,9.32
2017-11-24T09:34:53.560Z,9.34
2017-11-24T09:35:54.269Z,9.34
2017-11-24T09:36:54.980Z,9.36
2017-11-24T09:37:55.692Z,9.34
2017-11-24T09:38:56.403Z,9.36
2017-11-24T09:39:57.125Z,9.26
2017-11-24T09:40:57.835Z,9.32
2017-11-24T09:41:58.547Z,9.32
2017-11-24T09:42:59.268Z,9.46
2017-11-24T09:43:59.991Z,9.40
2017-11-24T09:45:00.703Z,9.40
2017-11-24T09:46:01.414Z,9.36
2017-11-24T09:47:02.125Z,9.34
2017-11-24T09:48:02.839Z,9.34
2017-11-24T09:49:03.546Z,9.36
2017-11-24T09:50:04.268Z,9.40
2017-11-24T09:51:04.994Z,9.48
2017-11-24T09:52:05.697Z,9.32
2017-11-24T09:53:06.415Z,9.31
2017-11-24T09:54:07.128Z,9.26
2017-11-24T09:55:07.839Z,9.31
2017-11-24T09:56:08.551Z,9.22
2017-11-24T09:57:09.266Z,9.13
2017-11-24T09:58:09.978Z,9.21
2017-11-24T09:59:10.690Z,9.23
2017-11-24T10:00:11.405Z,9.25
2017-11-24T10:01:12.132Z,9.34
2017-11-24T10:02:12.847Z,9.36
2017-11-24T10:03:13.573Z,9.37
2017-11-24T10:04:14.303Z,9.36
2017-11-24T10:05:15.020Z,9.41
2017-11-24T10:06:15.733Z,9.44
2017-11-24T10:07:16.446Z,9.39
2017-11-24T10:08:17.158Z,9.36
2017-11-24T10:09:17.871Z,9.28
2017-11-24T10:10:18.594Z,9.40
2017-11-24T10:11:19.305Z,9.47
2017-11-24T10:12:20.016Z,9.36
2017-11-24T10:13:20.751Z,9.31
2017-11-24T10:14:21.462Z,9.32
2017-11-24T10:15:22.184Z,9.28
2017-11-24T10:16:22.896Z,9.29
2017-11-24T10:17:23.608Z,9.31
2017-11-24T10:18:24.318Z,9.43
2017-11-24T10:19:25.027Z,9.36
2017-11-24T10:20:25.752Z,9.32
2017-11-24T10:21:26.460Z,9.39
2017-11-24T10:22:27.185Z,9.41
2017-11-24T10:23:27.910Z,9.41
2017-11-24T10:24:28.622Z,9.40
2017-11-24T10:25:29.344Z,9.54
2017-11-24T10:26:30.068Z,9.43
2017-11-24T10:27:30.779Z,9.40
2017-11-24T10:28:31.492Z,9.51
2017-11-24T10:29:32.206Z,9.55
2017-11-24T10:30:32.930Z,9.39
2017-11-24T10:31:33.642Z,9.51
2017-11-24T10:32:34.354Z,9.39
2017-11-24T10:33:35.065Z,9.56
2017-11-24T10:34:35.777Z,9.40
2017-11-24T10:35:36.501Z,9.34
2017-11-24T10:36:37.215Z,9.39
2017-11-24T10:37:37.935Z,9.61
2017-11-24T10:38:38.647Z,9.36
2017-11-24T10:39:39.360Z,9.34
2017-11-24T10:40:40.085Z,9.31
2017-11-24T10:41:40.810Z,9.32
2017-11-24T10:42:41.520Z,9.31
2017-11-24T10:43:42.230Z,9.31
2017-11-24T10:44:42.942Z,9.21
2017-11-24T10:45:43.655Z,9.31
2017-11-24T10:46:44.365Z,9.28
2017-11-24T10:47:45.092Z,9.23
2017-11-24T10:48:45.800Z,9.14
2017-11-24T10:49:46.510Z,9.23
2017-11-24T10:50:47.222Z,9.26
2017-11-24T10:51:47.945Z,9.29
2017-11-24T10:52:48.665Z,9.32
2017-11-24T10:53:49.369Z,9.26
2017-11-24T10:54:50.080Z,9.25
2017-11-24T10:55:50.791Z,9.26
2017-11-24T10:56:51.505Z,9.28
2017-11-24T10:57:52.217Z,9.22
2017-11-24T10:58:52.929Z,9.26
2017-11-24T10:59:53.656Z,9.31
2017-11-24T11:00:54.403Z,9.26
2017-11-24T11:01:55.091Z,9.36
2017-11-24T11:02:55.806Z,9.32
2017-11-24T11:03:56.518Z,9.40
2017-11-24T11:04:57.230Z,9.55
2017-11-24T11:05:57.960Z,9.65
2017-11-24T11:06:58.683Z,9.65
2017-11-24T11:07:59.396Z,9.66
2017-11-24T11:09:00.109Z,9.48
2017-11-24T11:10:00.835Z,9.65
2017-11-24T11:11:01.548Z,9.47
2017-11-24T11:12:02.260Z,9.56
2017-11-24T11:13:02.971Z,9.56
2017-11-24T11:14:03.684Z,9.56
2017-11-24T11:15:04.398Z,9.54
2017-11-24T11:16:05.112Z,9.76
2017-11-24T11:17:05.824Z,9.86
2017-11-24T11:18:06.539Z,9.95
2017-11-24T11:19:07.269Z,9.99
2017-11-24T11:20:07.994Z,10.15
2017-11-24T11:21:08.708Z,10.05
2017-11-24T11:22:09.426Z,10.22
2017-11-24T11:23:10.142Z,10.16
2017-11-24T11:24:10.855Z,10.19
2017-11-24T11:25:11.583Z,10.25
2017-11-24T11:26:12.298Z,10.09
2017-11-24T11:27:13.033Z,10.01
2017-11-24T11:28:13.738Z,9.84
2017-11-24T11:29:14.450Z,9.84
2017-11-24T11:30:15.162Z,9.87
2017-11-24T11:31:15.878Z,9.77
2017-11-24T11:32:16.614Z,9.79
2017-11-24T11:33:17.317Z,9.50
2017-11-24T11:34:18.037Z,9.54
2017-11-24T11:35:18.751Z,9.55
2017-11-24T11:36:19.475Z,9.39
2017-11-24T11:37:20.192Z,9.44
2017-11-24T11:38:20.901Z,9.48
2017-11-24T11:39:21.630Z,9.32
2017-11-24T11:40:22.349Z,9.22
2017-11-24T11:41:23.059Z,9.22
2017-11-24T11:42:23.784Z,9.13
2017-11-24T11:43:24.498Z,9.11
2017-11-24T11:44:25.219Z,9.03
2017-11-24T11:45:25.930Z,8.95
2017-11-24T11:46:26.655Z,8.99
2017-11-24T11:47:27.368Z,8.94
2017-11-24T11:48:28.091Z,8.99
2017-11-24T11:49:28.813Z,8.94
2017-11-24T11:50:29.530Z,8.99
2017-11-24T11:51:30.249Z,9.02
2017-11-24T11:52:30.963Z,8.95
2017-11-24T11:53:31.680Z,9.00
2017-11-24T11:54:32.388Z,9.00
2017-11-24T11:55:33.102Z,9.10
2017-11-24T11:56:33.828Z,9.18
2017-11-24T11:57:34.541Z,9.06
2017-11-24T11:58:35.253Z,9.03
2017-11-24T11:59:35.967Z,9.10
2017-11-24T12:00:36.679Z,9.11
2017-11-24T12:01:37.392Z,9.11
2017-11-24T12:02:38.105Z,9.14
2017-11-24T12:03:38.825Z,9.14
2017-11-24T12:04:39.532Z,9.10
2017-11-24T12:05:40.245Z,9.08
2017-11-24T12:06:40.969Z,9.13
2017-11-24T12:07:41.694Z,9.08
2017-11-24T12:08:42.409Z,9.02
2017-11-24T12:09:43.123Z,9.08
2017-11-24T12:10:43.838Z,9.00
2017-11-24T12:11:44.558Z,9.02
2017-11-24T12:12:45.268Z,9.04
2017-11-24T12:13:45.977Z,9.10
2017-11-24T12:14:46.698Z,9.04
2017-11-24T12:15:47.404Z,9.02
2017-11-24T12:16:48.116Z,9.04
2017-11-24T12:17:48.841Z,9.04
2017-11-24T12:18:49.566Z,8.99
2017-11-24T12:19:50.278Z,9.00
2017-11-24T12:20:50.990Z,9.03
2017-11-24T12:21:51.712Z,8.87
2017-11-24T12:22:52.423Z,8.94
2017-11-24T12:23:53.136Z,8.92
2017-11-24T12:24:53.848Z,8.89
2017-11-24T12:25:54.558Z,8.87
2017-11-24T12:26:55.267Z,8.81
2017-11-24T12:27:55.978Z,8.87
2017-11-24T12:28:56.690Z,8.87
2017-11-24T12:29:57.403Z,8.94
2017-11-24T12:30:58.112Z,8.87
2017-11-24T12:31:58.834Z,8.94
2017-11-24T12:32:59.548Z,8.88
2017-11-24T12:34:00.268Z,8.85
2017-11-24T12:35:00.980Z,8.88
2017-11-24T12:36:01.703Z,8.85
2017-11-24T12:37:02.425Z,8.74
2017-11-24T12:38:03.136Z,8.74
2017-11-24T12:39:03.848Z,8.66
2017-11-24T12:40:04.559Z,8.66
2017-11-24T12:41:05.287Z,8.67
2017-11-24T12:42:05.992Z,8.64
2017-11-24T12:43:06.704Z,8.63
2017-11-24T12:44:07.414Z,8.64
2017-11-24T12:45:08.124Z,8.61
2017-11-24T12:46:08.848Z,8.66
2017-11-24T12:47:09.560Z,8.58
2017-11-24T12:48:10.271Z,8.60
2017-11-24T12:49:10.993Z,8.51
2017-11-24T12:50:11.703Z,8.51
2017-11-24T12:51:12.412Z,8.60
2017-11-24T12:52:13.124Z,8.48
2017-11-24T12:53:13.836Z,8.48
2017-11-24T12:54:14.548Z,8.51
2017-11-24T12:55:15.262Z,8.51
2017-11-24T12:56:15.968Z,8.48
2017-11-24T12:57:16.690Z,8.49
2017-11-24T12:58:17.416Z,8.53
2017-11-24T12:59:18.135Z,8.37
2017-11-24T13:00:18.856Z,8.44
2017-11-24T13:01:19.568Z,8.38
2017-11-24T13:02:20.280Z,8.33
2017-11-24T13:03:21.025Z,8.41
2017-11-24T13:04:21.747Z,8.38
2017-11-24T13:05:22.459Z,8.46
2017-11-24T13:06:23.181Z,8.33
2017-11-24T13:07:23.911Z,8.37
2017-11-24T13:08:24.615Z,8.36
2017-11-24T13:09:25.327Z,8.37
2017-11-24T13:10:26.036Z,8.46
2017-11-24T13:11:26.746Z,8.51
2017-11-24T13:12:27.455Z,8.46
2017-11-24T13:13:28.166Z,8.53
2017-11-24T13:14:28.884Z,8.46
2017-11-24T13:15:29.590Z,8.53
2017-11-24T13:16:30.307Z,8.56
2017-11-24T13:17:31.023Z,8.49
2017-11-24T13:18:31.746Z,8.58
2017-11-24T13:19:32.456Z,8.56
2017-11-24T13:20:33.165Z,8.61
2017-11-24T13:21:33.889Z,8.52
2017-11-24T13:22:34.600Z,8.51
2017-11-24T13:23:35.313Z,8.55
2017-11-24T13:24:36.028Z,8.49
2017-11-24T13:25:36.755Z,8.56
2017-11-24T13:26:37.453Z,8.63